| time (UTC) | temp F | wind direction | speed MPH | gust MPH | rain 1hr in | rain 24hr in | rain mn in | humidity % | barometer mb |
| 20260507220052 | 56 | 0.0 | 0.0 | 0.01 | 0.20 | 0.20 | 96 | 1015.6 | |
| 20260507215050 | 56 | 0.0 | 0.0 | 0.01 | 0.20 | 0.20 | 96 | 1015.6 | |
| 20260507214032 | 56 | 0.0 | 0.0 | 0.01 | 0.20 | 0.20 | 96 | 1015.6 | |
| 20260507213050 | 56 | 0.0 | 0.0 | 0.02 | 0.20 | 0.20 | 96 | 1015.6 | |
| 20260507212032 | 55 | 0.0 | 0.0 | 0.04 | 0.20 | 0.20 | 96 | 1015.5 | |
| 20260507211030 | 55 | 0.0 | 0.0 | 0.05 | 0.20 | 0.20 | 95 | 1015.4 | |
| 20260507210052 | 55 | 0.0 | 0.0 | 0.05 | 0.19 | 0.19 | 95 | 1015.3 | |
| 20260507205031 | 55 | 0.0 | 0.0 | 0.06 | 0.19 | 0.19 | 95 | 1015.4 | |
| 20260507204022 | 56 | 0.0 | 0.0 | 0.07 | 0.19 | 0.19 | 95 | 1015.4 | |
| 20260507203036 | 56 | 0.0 | 0.0 | 0.08 | 0.18 | 0.18 | 95 | 1015.5 | |
| 20260507202022 | 55 | 0.0 | 0.0 | 0.08 | 0.16 | 0.16 | 94 | 1015.3 | |
| 20260507201031 | 55 | 0.0 | 0.0 | 0.09 | 0.15 | 0.15 | 94 | 1015.2 | |
| 20260507200023 | 56 | 0.0 | 0.0 | 0.09 | 0.14 | 0.14 | 94 | 1015.4 | |
| 20260507195030 | 56 | 0.0 | 0.0 | 0.08 | 0.13 | 0.13 | 94 | 1015.3 | |
| 20260507194033 | 56 | 0.0 | 0.0 | 0.07 | 0.12 | 0.12 | 93 | 1015.1 | |
| 20260507193051 | 56 | 0.0 | 0.0 | 0.05 | 0.10 | 0.10 | 93 | 1015.1 | |
| 20260507192033 | 56 | 0.0 | 0.0 | 0.03 | 0.08 | 0.08 | 92 | 1015.0 | |
| 20260507191030 | 56 | 0.0 | 0.0 | 0.02 | 0.06 | 0.06 | 91 | 1014.9 | |
| 20260507190033 | 57 | 0.0 | 0.0 | 0.01 | 0.05 | 0.05 | 90 | 1014.8 | |
| 20260507185030 | 57 | 0.0 | 0.0 | 0.02 | 0.05 | 0.05 | 89 | 1014.7 | |
| 20260507184032 | 58 | 0.0 | 0.0 | 0.03 | 0.05 | 0.05 | 89 | 1014.6 | |
| 20260507183030 | 59 | 0.0 | 0.0 | 0.03 | 0.05 | 0.05 | 88 | 1014.5 | |
| 20260507182033 | 60 | 0.0 | 0.0 | 0.03 | 0.05 | 0.05 | 85 | 1014.5 | |
| 20260507181036 | 60 | 5 | 0.0 | 1.0 | 0.02 | 0.04 | 0.04 | 90 | 1014.4 |
| 20260507180022 | 61 | 22 | 1.0 | 3.0 | 0.02 | 0.04 | 0.04 | 90 | 1014.2 |
| 20260507175056 | 61 | 0.0 | 0.0 | 0.01 | 0.03 | 0.03 | 88 | 1014.1 | |
| 20260507174028 | 62 | 0.0 | 0.0 | 0.00 | 0.02 | 0.02 | 87 | 1014.0 | |
| 20260507173050 | 62 | 115 | 0.0 | 1.0 | 0.00 | 0.02 | 0.02 | 87 | 1013.8 |
| 20260507172022 | 62 | 132 | 0.0 | 1.0 | 0.00 | 0.02 | 0.02 | 86 | 1013.9 |
| 20260507171030 | 63 | 132 | 0.0 | 1.0 | 0.00 | 0.02 | 0.02 | 86 | 1013.8 |
| 20260507170033 | 63 | 132 | 0.0 | 1.0 | 0.00 | 0.02 | 0.02 | 86 | 1013.8 |
| 20260507165030 | 63 | 133 | 0.0 | 1.0 | 0.00 | 0.02 | 0.02 | 86 | 1013.8 |
| 20260507164052 | 63 | 127 | 0.0 | 1.0 | 0.00 | 0.02 | 0.02 | 86 | 1013.7 |
| 20260507163031 | 63 | 124 | 0.0 | 1.0 | 0.00 | 0.02 | 0.02 | 86 | 1013.8 |
| 20260507162032 | 63 | 122 | 1.0 | 3.0 | 0.00 | 0.02 | 0.02 | 85 | 1013.8 |
| 20260507161031 | 63 | 116 | 1.0 | 3.0 | 0.00 | 0.02 | 0.02 | 84 | 1013.7 |
| 20260507160032 | 63 | 123 | 2.0 | 3.0 | 0.00 | 0.02 | 0.02 | 84 | 1013.7 |
| 20260507155030 | 63 | 136 | 2.0 | 4.0 | 0.00 | 0.02 | 0.02 | 83 | 1013.7 |
| 20260507154023 | 63 | 122 | 1.0 | 1.0 | 0.00 | 0.02 | 0.02 | 81 | 1013.7 |
| 20260507153030 | 64 | 0.0 | 0.0 | 0.00 | 0.02 | 0.02 | 79 | 1013.7 | |
| 20260507152053 | 65 | 122 | 0.0 | 1.0 | 0.00 | 0.02 | 0.02 | 77 | 1013.8 |
| 20260507151032 | 66 | 135 | 1.0 | 3.0 | 0.00 | 0.02 | 0.02 | 71 | 1013.6 |
| 20260507150032 | 68 | 180 | 2.0 | 5.0 | 0.00 | 0.02 | 0.02 | 60 | 1013.6 |
| 20260507145116 | 68 | 165 | 2.0 | 6.0 | 0.00 | 0.02 | 0.02 | 56 | 1013.6 |
| 20260507144052 | 69 | 162 | 1.0 | 6.0 | 0.00 | 0.02 | 0.02 | 55 | 1013.6 |
| 20260507143030 | 69 | 133 | 2.0 | 6.0 | 0.00 | 0.02 | 0.02 | 54 | 1013.7 |
| 20260507142033 | 69 | 123 | 1.0 | 4.0 | 0.00 | 0.02 | 0.02 | 58 | 1013.7 |
| 20260507141030 | 69 | 129 | 2.0 | 5.0 | 0.00 | 0.02 | 0.02 | 58 | 1013.7 |
| 20260507140032 | 69 | 145 | 1.0 | 5.0 | 0.01 | 0.02 | 0.02 | 58 | 1013.7 |
| 20260507135030 | 68 | 148 | 1.0 | 8.0 | 0.02 | 0.02 | 0.02 | 61 | 1013.7 |
| 20260507134053 | 67 | 112 | 0.0 | 3.0 | 0.02 | 0.02 | 0.02 | 64 | 1013.7 |
| 20260507133031 | 66 | 140 | 2.0 | 6.0 | 0.02 | 0.02 | 0.02 | 70 | 1013.8 |
| 20260507132053 | 65 | 184 | 0.0 | 3.0 | 0.02 | 0.02 | 0.02 | 80 | 1013.8 |
| 20260507131056 | 64 | 138 | 0.0 | 3.0 | 0.02 | 0.02 | 0.02 | 81 | 1013.8 |
| 20260507130023 | 66 | 84 | 1.0 | 3.0 | 0.01 | 0.01 | 0.01 | 76 | 1013.9 |
| 20260507125031 | 69 | 156 | 2.0 | 8.0 | 0.00 | 0.00 | 0.00 | 61 | 1013.7 |
| 20260507124030 | 70 | 65 | 1.0 | 5.0 | 0.00 | 0.00 | 0.00 | 60 | 1013.4 |
| 20260507123051 | 72 | 29 | 1.0 | 5.0 | 0.00 | 0.00 | 0.00 | 53 | 1013.4 |
| 20260507122032 | 73 | 13 | 3.0 | 8.0 | 0.00 | 0.00 | 0.00 | 51 | 1013.4 |
| 20260507121032 | 74 | 356 | 3.0 | 9.0 | 0.00 | 0.00 | 0.00 | 50 | 1013.4 |
| 20260507120023 | 73 | 140 | 2.0 | 8.0 | 0.00 | 0.00 | 0.00 | 50 | 1013.3 |
| 20260507115036 | 73 | 178 | 2.0 | 6.0 | 0.00 | 0.00 | 0.00 | 50 | 1013.3 |
| 20260507114023 | 73 | 171 | 2.0 | 9.0 | 0.00 | 0.00 | 0.00 | 51 | 1013.3 |
| 20260507113031 | 74 | 178 | 2.0 | 6.0 | 0.00 | 0.00 | 0.00 | 50 | 1013.4 |
| 20260507112024 | 76 | 134 | 2.0 | 6.0 | 0.00 | 0.00 | 0.00 | 46 | 1013.3 |
| 20260507111031 | 75 | 143 | 1.0 | 4.0 | 0.00 | 0.00 | 0.00 | 47 | 1013.4 |
| 20260507110032 | 75 | 164 | 4.0 | 11.0 | 0.00 | 0.00 | 0.00 | 46 | 1013.4 |
| 20260507105032 | 76 | 167 | 2.0 | 9.0 | 0.00 | 0.00 | 0.00 | 45 | 1013.4 |
| 20260507104032 | 76 | 189 | 3.0 | 10.0 | 0.00 | 0.00 | 0.00 | 45 | 1013.4 |
| 20260507103051 | 75 | 128 | 3.0 | 10.0 | 0.00 | 0.00 | 0.00 | 47 | 1013.6 |
| 20260507102032 | 74 | 186 | 4.0 | 9.0 | 0.00 | 0.00 | 0.00 | 48 | 1013.5 |
| 20260507101051 | 71 | 153 | 3.0 | 10.0 | 0.00 | 0.00 | 0.00 | 51 | 1013.7 |
| 20260507100033 | 72 | 190 | 3.0 | 10.0 | 0.00 | 0.00 | 0.00 | 50 | 1013.7 |
| 20260507095036 | 72 | 186 | 3.0 | 9.0 | 0.00 | 0.00 | 0.00 | 49 | 1013.7 |
| 20260507094032 | 71 | 181 | 3.0 | 8.0 | 0.00 | 0.00 | 0.00 | 52 | 1013.8 |
| 20260507093031 | 71 | 143 | 2.0 | 8.0 | 0.00 | 0.00 | 0.00 | 53 | 1013.6 |
| 20260507092024 | 70 | 173 | 2.0 | 6.0 | 0.00 | 0.00 | 0.00 | 54 | 1013.7 |
| 20260507091031 | 69 | 176 | 3.0 | 10.0 | 0.00 | 0.00 | 0.00 | 55 | 1013.6 |
| 20260507090033 | 68 | 131 | 1.0 | 4.0 | 0.00 | 0.00 | 0.00 | 57 | 1013.5 |
| 20260507085053 | 68 | 170 | 2.0 | 5.0 | 0.00 | 0.00 | 0.00 | 58 | 1013.5 |
| 20260507084023 | 68 | 164 | 2.0 | 4.0 | 0.00 | 0.00 | 0.00 | 58 | 1013.5 |
| 20260507083037 | 67 | 155 | 3.0 | 9.0 | 0.00 | 0.00 | 0.00 | 60 | 1013.5 |
| 20260507082023 | 67 | 167 | 1.0 | 4.0 | 0.00 | 0.00 | 0.00 | 59 | 1013.3 |
| 20260507081031 | 68 | 174 | 3.0 | 10.0 | 0.00 | 0.00 | 0.00 | 57 | 1013.4 |
| 20260507080033 | 68 | 183 | 2.0 | 6.0 | 0.00 | 0.00 | 0.00 | 58 | 1013.3 |
| 20260507075032 | 68 | 169 | 2.0 | 10.0 | 0.00 | 0.00 | 0.00 | 59 | 1013.2 |
| 20260507074034 | 68 | 160 | 2.0 | 6.0 | 0.00 | 0.00 | 0.00 | 60 | 1013.1 |
| 20260507073031 | 68 | 136 | 2.0 | 8.0 | 0.00 | 0.00 | 0.00 | 61 | 1013.0 |
| 20260507072033 | 67 | 152 | 2.0 | 4.0 | 0.00 | 0.00 | 0.00 | 61 | 1012.9 |
| 20260507071032 | 67 | 145 | 2.0 | 6.0 | 0.00 | 0.00 | 0.00 | 62 | 1013.0 |
| 20260507070043 | 66 | 152 | 2.0 | 5.0 | 0.00 | 0.00 | 0.00 | 63 | 1013.0 |
| 20260507065117 | 66 | 139 | 2.0 | 5.0 | 0.00 | 0.00 | 0.00 | 64 | 1012.9 |
| 20260507064023 | 65 | 154 | 1.0 | 3.0 | 0.00 | 0.00 | 0.00 | 66 | 1013.0 |
| 20260507063031 | 65 | 169 | 2.0 | 6.0 | 0.00 | 0.00 | 0.00 | 66 | 1013.0 |
| 20260507062107 | 65 | 166 | 1.0 | 4.0 | 0.00 | 0.00 | 0.00 | 67 | 1013.0 |
| 20260507061031 | 65 | 129 | 1.0 | 5.0 | 0.00 | 0.00 | 0.00 | 68 | 1012.8 |
| 20260507060032 | 64 | 168 | 1.0 | 4.0 | 0.00 | 0.00 | 0.00 | 69 | 1012.7 |
| 20260507055052 | 64 | 169 | 1.0 | 5.0 | 0.00 | 0.00 | 0.00 | 71 | 1012.8 |
| 20260507054023 | 63 | 158 | 1.0 | 6.0 | 0.00 | 0.00 | 0.00 | 74 | 1012.6 |
| 20260507053037 | 62 | 150 | 1.0 | 4.0 | 0.00 | 0.00 | 0.00 | 78 | 1012.5 |
| 20260507052023 | 62 | 131 | 0.0 | 3.0 | 0.00 | 0.00 | 0.00 | 81 | 1012.5 |
| 20260507051052 | 61 | 134 | 1.0 | 3.0 | 0.00 | 0.00 | 0.00 | 82 | 1012.3 |
| 20260507050024 | 60 | 119 | 0.0 | 1.0 | 0.00 | 0.00 | 0.00 | 84 | 1012.2 |
| 20260507045032 | 60 | 119 | 0.0 | 1.0 | 0.00 | 0.00 | 0.00 | 84 | 1012.2 |
| 20260507044023 | 60 | 196 | 0.0 | 1.0 | 0.00 | 0.00 | 0.00 | 84 | 1012.1 |
| 20260507043032 | 60 | 196 | 0.0 | 1.0 | 0.00 | 0.00 | 0.00 | 86 | 1011.9 |
| 20260507042043 | 59 | 197 | 0.0 | 1.0 | 0.00 | 0.00 | 0.00 | 87 | 1011.8 |
| 20260507041031 | 59 | 0.0 | 0.0 | 0.00 | 0.00 | 0.00 | 87 | 1011.8 | |
| 20260507040044 | 59 | 0.0 | 0.0 | 0.00 | 0.00 | 0.00 | 87 | 1011.7 | |
| 20260507035031 | 59 | 0.0 | 0.0 | 0.00 | 0.00 | 0.00 | 87 | 1011.6 | |
| 20260507034033 | 59 | 0.0 | 0.0 | 0.00 | 0.00 | 0.00 | 87 | 1011.5 | |
| 20260507033053 | 59 | 0.0 | 0.0 | 0.00 | 0.00 | 0.00 | 88 | 1011.4 | |
| 20260507032023 | 59 | 0.0 | 0.0 | 0.00 | 0.00 | 0.00 | 89 | 1011.4 | |
| 20260507031032 | 59 | 0.0 | 0.0 | 0.00 | 0.00 | 0.00 | 89 | 1011.4 | |
| 20260507030023 | 59 | 0.0 | 0.0 | 0.00 | 0.00 | 0.00 | 89 | 1011.5 | |
| 20260507025031 | 59 | 0.0 | 0.0 | 0.00 | 0.00 | 0.00 | 89 | 1011.4 | |
| 20260507024044 | 59 | 0.0 | 0.0 | 0.00 | 0.00 | 0.00 | 89 | 1011.3 | |
| 20260507023032 | 59 | 0.0 | 0.0 | 0.00 | 0.00 | 0.00 | 88 | 1011.4 | |
| 20260507022023 | 59 | 0.0 | 0.0 | 0.00 | 0.00 | 0.00 | 88 | 1011.5 | |
| 20260507021032 | 59 | 0.0 | 0.0 | 0.00 | 0.00 | 0.00 | 87 | 1011.4 | |
| 20260507020023 | 59 | 0.0 | 0.0 | 0.00 | 0.00 | 0.00 | 87 | 1011.5 | |
| 20260507015032 | 60 | 0.0 | 0.0 | 0.00 | 0.00 | 0.00 | 86 | 1011.5 | |
| 20260507014032 | 60 | 0.0 | 0.0 | 0.00 | 0.00 | 0.00 | 86 | 1011.4 | |
| 20260507013032 | 60 | 125 | 0.0 | 1.0 | 0.00 | 0.00 | 0.00 | 86 | 1011.5 |
| 20260507012023 | 60 | 0.0 | 0.0 | 0.00 | 0.00 | 0.00 | 85 | 1011.2 | |
| 20260507011057 | 61 | 0.0 | 0.0 | 0.00 | 0.00 | 0.00 | 83 | 1011.3 | |
| 20260507010024 | 61 | 0.0 | 0.0 | 0.00 | 0.00 | 0.00 | 80 | 1011.3 | |
| 20260507005032 | 62 | 108 | 0.0 | 1.0 | 0.00 | 0.00 | 0.00 | 78 | 1011.3 |
| 20260507004025 | 62 | 143 | 0.0 | 1.0 | 0.00 | 0.00 | 0.00 | 76 | 1011.1 |
| 20260507003051 | 62 | 110 | 1.0 | 5.0 | 0.00 | 0.00 | 0.00 | 75 | 1011.3 |
| 20260507002023 | 63 | 355 | 1.0 | 4.0 | 0.00 | 0.00 | 0.00 | 75 | 1011.2 |
| 20260507001052 | 63 | 78 | 0.0 | 1.0 | 0.00 | 0.00 | 0.00 | 74 | 1011.3 |
| 20260507000023 | 63 | 94 | 0.0 | 3.0 | 0.00 | 0.00 | 0.00 | 74 | 1011.5 |
| 20260506235037 | 63 | 143 | 0.0 | 4.0 | 0.00 | 0.00 | 0.00 | 72 | 1011.5 |
| 20260506234024 | 64 | 77 | 0.0 | 5.0 | 0.00 | 0.00 | 0.00 | 70 | 1011.5 |
| 20260506233032 | 64 | 26 | 1.0 | 8.0 | 0.00 | 0.00 | 0.00 | 69 | 1011.5 |
| 20260506232024 | 64 | 80 | 1.0 | 3.0 | 0.00 | 0.00 | 0.00 | 70 | 1011.6 |
| 20260506231032 | 64 | 202 | 2.0 | 9.0 | 0.00 | 0.00 | 0.00 | 71 | 1011.5 |
| 20260506230032 | 63 | 97 | 0.0 | 1.0 | 0.00 | 0.00 | 0.00 | 69 | 1011.6 |
| 20260506225033 | 63 | 127 | 0.0 | 1.0 | 0.00 | 0.00 | 0.00 | 68 | 1011.5 |
| 20260506224024 | 63 | 91 | 0.0 | 1.0 | 0.00 | 0.00 | 0.00 | 68 | 1011.5 |
| 20260506223032 | 63 | 96 | 0.0 | 1.0 | 0.00 | 0.00 | 0.00 | 68 | 1011.4 |
| 20260506222028 | 63 | 91 | 0.0 | 1.0 | 0.00 | 0.00 | 0.00 | 68 | 1011.1 |
| 20260506221034 | 62 | 81 | 0.0 | 1.0 | 0.00 | 0.00 | 0.00 | 69 | 1011.2 |